Latest Coastal Weather Observations for Lady Elliot Island

IDQ60701

Issued at 2:02 pm EST Tuesday 26 May 2020 (issued every 10 minutes, with the page automatically refreshed every 10 minutes)

About coastal observations | Map of coastal stations | Coastal observations for QLD | Marine services | Other Formats
Station Details ID: 039059 Name: LADY ELLIOT ISLAND Lat: -24.11 Lon: 152.72 Height: 3.6 m
Data from the previous 72 hours. | See also: Recent months at Lady Elliot Island
Date/Time
EST
Wind Sea
Height
m
Swell Vis
km
Cloud Weather Temp
°C
Press
hPa
Rain since
9am
mm
Dir  Spd
kts
Gust
kts
Height
m
Period
s
Dir
26/02:00pm S 7 10 - - - - - - - 21.1 1018.0 0.0
26/01:30pm S 8 11 - - - - - - - 21.0 1018.3 0.0
26/01:00pm S 8 11 - - - - - - - 21.1 1018.5 0.0
26/12:30pm S 9 12 - - - - - - - 21.0 1018.8 0.0
26/12:00pm S 9 14 - - - - - - - 21.3 1019.0 0.0
26/11:30am S 9 13 - - - - - - - 20.9 1019.2 0.0
26/11:00am S 10 14 - - - - - - - 20.8 1019.6 0.0
26/10:30am S 11 15 - - - - - - - 20.5 1019.6 0.0
26/10:00am S 12 16 - - - - - - - 20.3 1019.9 0.0
26/09:30am S 12 18 - - - - - - - 20.3 1019.8 0.0
26/09:00am SSW 14 18 - - - - - - - 19.9 1019.8 0.0
26/08:30am S 12 17 - - - - - - - 19.8 1019.7 0.0
26/08:00am S 13 17 - - - - - - - 19.5 1019.3 0.0
26/07:30am SSW 14 19 - - - - - - - 19.1 1019.0 0.0
26/07:00am SSW 14 19 - - - - - - - 19.0 1018.5 0.0
26/06:30am SSW 14 19 - - - - - - - 18.6 1018.4 0.0
26/06:00am SSW 14 18 - - - - - - - 18.8 1018.0 0.0
26/05:30am SSW 13 18 - - - - - - - 18.8 1017.6 0.0
26/05:00am SSW 14 18 - - - - - - - 18.9 1017.2 0.0
26/04:30am SSW 12 17 - - - - - - - 18.7 1017.0 0.0
26/04:00am SSW 12 17 - - - - - - - 18.7 1016.9 0.0
26/03:30am SW 9 12 - - - - - - - 18.7 1016.9 0.0
26/03:00am SW 9 14 - - - - - - - 19.0 1016.9 0.0
26/02:30am WSW 9 14 - - - - - - - 19.5 1016.8 0.0
26/02:00am W 9 14 - - - - - - - 19.8 1017.1 0.0
26/01:30am WNW 9 15 - - - - - - - 20.0 1017.2 0.0
26/01:00am WNW 9 15 - - - - - - - 19.8 1017.4 0.0
26/12:30am WNW 10 13 - - - - - - - 19.8 1017.6 0.0
26/12:00am W 8 12 - - - - - - - 19.6 1017.7 0.0
 
Date/Time
EST
Wind Sea
Height
m
Swell Vis
km
Cloud Weather Temp
°C
Press
hPa
Rain since
9am
mm
Dir  Spd
kts
Gust
kts
Height
m
Period
s
Dir
25/11:30pm WNW 7 11 - - - - - - - 19.4 1017.9 0.0
25/11:00pm WNW 8 11 - - - - - - - 19.4 1017.9 0.0
25/10:30pm WNW 8 11 - - - - - - - 19.4 1018.1 0.0
25/10:00pm WNW 9 13 - - - - - - - 19.5 1018.0 0.0
25/09:30pm NW 9 13 - - - - - - - 19.4 1017.8 0.0
25/09:00pm WNW 8 13 - - - - - - - 19.2 1017.7 0.0
25/08:30pm WNW 9 11 - - - - - - - 19.1 1017.5 0.0
25/08:00pm NW 8 12 - - - - - - - 19.0 1017.5 0.0
25/07:30pm NW 8 11 - - - - - - - 18.8 1017.1 0.0
25/07:00pm NW 8 12 - - - - - - - 18.7 1016.9 0.0
25/06:30pm WNW 8 11 - - - - - - - 18.4 1016.4 0.0
25/06:00pm WNW 7 12 - - - - - - - 18.3 1016.0 0.0
25/05:30pm NW 7 11 - - - - - - - 18.3 1015.8 0.0
25/05:00pm WNW 6 9 - - - - - - - 18.3 1015.6 0.0
25/04:30pm NNW 4 7 - - - - - - - 19.2 1015.4 0.0
25/04:00pm WNW 4 6 - - - - - - - 19.6 1015.1 0.0
25/03:30pm W 4 5 - - - - - - - 20.0 1015.1 0.0
25/03:00pm SW 3 5 - - - - - - - 19.9 1015.1 0.0
25/02:30pm W 4 5 - - - - - - - 20.4 1015.2 0.0
25/02:00pm WNW 3 5 - - - - - - - 20.1 1015.2 0.0
25/01:30pm SW 3 6 - - - - - - - 19.7 1015.4 0.0
25/01:00pm SSW 5 7 - - - - - - - 19.7 1015.4 0.0
25/12:30pm SSE 5 7 - - - - - - - 19.4 1015.7 0.0
25/12:00pm S 6 9 - - - - - - - 19.4 1016.0 0.0
25/11:30am S 8 11 - - - - - - - 19.6 1016.2 0.0
25/11:00am SSW 9 11 - - - - - - - 19.6 1016.3 0.0
25/10:30am SSW 9 12 - - - - - - - 19.5 1016.7 0.0
25/10:00am SSW 10 15 - - - - - - - 19.4 1016.8 0.0
25/09:30am SSW 12 16 - - - - - - - 19.1 1016.8 0.0
25/09:00am SSW 13 18 - - - - - - - 18.7 1016.5 0.0
25/08:30am SSW 13 17 - - - - - - - 18.3 1016.4 0.0
25/08:00am SSW 14 20 - - - - - - - 17.8 1016.0 0.0
25/07:30am SW 16 26 - - - - - - - 17.4 1015.7 0.0
25/07:16am SW 16 26 - - - - - - - 17.2 1015.5 0.0
25/07:00am SW 14 23 - - - - - - - 17.1 1015.1 0.0
25/06:30am SW 15 24 - - - - - - - 16.6 1015.0 0.0
25/06:00am SW 15 23 - - - - - - - 16.8 1014.7 0.0
25/05:30am SW 15 21 - - - - - - - 16.8 1014.4 0.0
25/05:09am SW 15 25 - - - - - - - 16.9 1014.1 0.0
25/05:00am SW 15 23 - - - - - - - 16.8 1014.0 0.0
25/04:49am SW 15 25 - - - - - - - 17.0 1014.1 0.0
25/04:30am SW 15 20 - - - - - - - 16.8 1014.1 0.0
25/04:00am SW 13 19 - - - - - - - 16.9 1014.1 0.0
25/03:30am SW 13 19 - - - - - - - 16.9 1014.4 0.0
25/03:00am SW 13 19 - - - - - - - 17.1 1014.2 0.0
25/02:30am SW 13 19 - - - - - - - 17.3 1014.2 0.0
25/02:00am SW 13 20 - - - - - - - 17.3 1014.2 0.0
25/01:30am SW 13 19 - - - - - - - 17.6 1014.6 0.0
25/01:00am SW 11 16 - - - - - - - 17.5 1015.0 0.0
25/12:30am SW 10 16 - - - - - - - 17.6 1015.4 0.0
25/12:00am SW 8 13 - - - - - - - 17.5 1015.4 0.0
 
Date/Time
EST
Wind Sea
Height
m
Swell Vis
km
Cloud Weather Temp
°C
Press
hPa
Rain since
9am
mm
Dir  Spd
kts
Gust
kts
Height
m
Period
s
Dir
24/11:30pm SW 9 13 - - - - - - - 17.7 1015.3 0.0
24/11:00pm WSW 9 15 - - - - - - - 18.0 1015.5 0.0
24/10:30pm SW 9 14 - - - - - - - 18.0 1015.5 0.0
24/10:00pm SW 10 14 - - - - - - - 18.0 1015.3 0.0
24/09:30pm SW 9 13 - - - - - - - 18.0 1015.3 0.0
24/09:00pm SW 9 14 - - - - - - - 18.0 1015.0 0.0
24/08:30pm SW 10 16 - - - - - - - 18.0 1014.7 0.0
24/08:00pm SW 10 15 - - - - - - - 18.3 1014.4 0.0
24/07:30pm SW 10 15 - - - - - - - 18.3 1013.9 0.0
24/07:00pm SW 11 17 - - - - - - - 18.5 1013.4 0.0
24/06:30pm SW 11 16 - - - - - - - 18.6 1012.9 0.0
24/06:00pm SW 11 17 - - - - - - - 18.5 1012.4 0.0
24/05:30pm SW 10 16 - - - - - - - 17.9 1012.2 0.0
24/05:00pm WSW 10 15 - - - - - - - 17.8 1012.1 0.0
24/04:30pm WSW 10 16 - - - - - - - 18.3 1011.6 0.0
24/04:00pm WSW 11 16 - - - - - - - 18.2 1011.2 0.0
24/03:30pm WSW 10 15 - - - - - - - 18.3 1011.1 0.0
24/03:00pm WSW 11 15 - - - - - - - 18.2 1011.3 0.0
24/02:30pm WSW 11 16 - - - - - - - 18.0 1011.4 0.0
24/02:00pm WSW 12 19 - - - - - - - 17.6 1011.7 0.0
24/01:30pm WSW 13 18 - - - - - - - 17.8 1011.9 0.0
24/01:00pm WSW 12 17 - - - - - - - 17.4 1012.4 0.0
24/12:30pm WSW 12 16 - - - - - - - 16.9 1013.0 0.0
24/12:00pm WSW 10 15 - - - - - - - 16.6 1013.4 0.0
24/11:30am WSW 11 17 - - - - - - - 16.8 1014.1 0.0
24/11:00am SW 13 19 - - - - - - - 16.5 1014.8 0.0
24/10:30am SW 12 17 - - - - - - - 16.5 1014.8 0.0
24/10:00am SW 13 20 - - - - - - - 16.3 1015.0 0.0
24/09:30am SW 16 23 - - - - - - - 16.0 1014.8 0.0
24/09:00am SW 17 28 - - - - - - - 15.6 1014.5 9.6
24/08:39am SW 17 27 - - - - - - - 15.4 1014.3 9.6
24/08:30am SW 16 25 - - - - - - - 15.4 1014.3 9.6
24/08:00am SW 15 25 - - - - - - - 15.0 1014.2 9.6
24/07:55am SW 15 25 - - - - - - - 15.0 1014.2 9.6
24/07:30am SW 16 22 - - - - - - - 14.7 1013.8 9.6
24/07:16am SW 15 25 - - - - - - - 14.1 1013.6 9.6
24/07:00am SW 16 23 - - - - - - - 14.0 1013.7 9.6
24/06:30am SW 15 23 - - - - - - - 14.0 1013.2 9.6
24/06:00am SW 14 21 - - - - - - - 14.4 1013.0 9.6
24/05:34am SW 15 25 - - - - - - - 14.5 1012.4 9.6
24/05:30am SW 14 20 - - - - - - - 14.6 1012.5 9.6
24/05:00am SW 15 22 - - - - - - - 14.8 1012.6 9.6
24/04:30am SW 15 25 - - - - - - - 14.9 1011.9 9.6
24/04:29am SW 15 25 - - - - - - - 15.0 1012.0 9.6
24/04:00am SW 15 23 - - - - - - - 15.2 1012.2 9.6
24/03:30am SW 15 22 - - - - - - - 15.6 1012.0 9.6
24/03:00am SW 16 23 - - - - - - - 15.7 1011.6 9.6
24/02:30am SW 15 22 - - - - - - - 15.9 1011.1 9.6
24/02:00am SW 16 24 - - - - - - - 16.1 1012.9 9.6
24/01:30am SW 14 20 - - - - - - - 16.2 1012.3 9.6
24/01:00am SW 13 19 - - - - - - - 16.1 1013.6 9.6
24/12:30am SW 11 17 - - - - - - - 16.1 1013.2 9.4
24/12:00am SW 12 18 - - - - - - - 15.9 1014.0 9.4
 
Date/Time
EST
Wind Sea
Height
m
Swell Vis
km
Cloud Weather Temp
°C
Press
hPa
Rain since
9am
mm
Dir  Spd
kts
Gust
kts
Height
m
Period
s
Dir
23/11:30pm SW 11 17 - - - - - - - 15.7 1014.4 9.4
23/11:00pm SW 11 15 - - - - - - - 15.7 1013.2 9.4
23/10:30pm SW 11 17 - - - - - - - 15.5 1014.1 9.4
23/10:00pm WSW 10 15 - - - - - - - 15.3 1013.5 9.4
23/09:30pm SW 9 14 - - - - - - - 15.5 1013.4 9.4
23/09:00pm WSW 10 15 - - - - - - - 15.3 1014.9 9.4
23/08:30pm WSW 9 15 - - - - - - - 15.1 1013.9 9.4
23/08:00pm WSW 10 16 - - - - - - - 15.1 1013.6 9.4
23/07:30pm WSW 9 16 - - - - - - - 14.9 1013.3 9.4
23/07:00pm WSW 10 14 - - - - - - - 14.8 1012.6 9.4
23/06:30pm WSW 10 14 - - - - - - - 15.0 1013.8 9.4
23/06:21pm W 9 13 - - - - - - - 14.7 1013.8 9.4
23/06:00pm WSW 5 8 - - - - - - Recent precip. 14.1 1011.8 9.4
23/05:30pm WSW 7 10 - - - - - - - 13.8 1011.8 9.4
23/05:00pm W 10 15 - - - - - - - 13.9 1013.6 9.2
23/04:30pm WSW 7 11 - - - - - - - 13.2 1012.5 9.0
23/04:00pm WSW 8 11 - - - - - - - 13.0 1013.0 8.6
23/03:30pm WSW 10 16 - - - - - - - 13.0 1012.3 8.2
23/03:00pm WSW 11 16 - - - - - - Rain 13.2 1012.5 7.4
23/02:30pm WSW 11 15 - - - - - - - 13.7 1013.3 6.8

Other formats

Comma delimited format used in spreadsheet applications
http://www.bom.gov.au/fwo/IDQ60701/IDQ60701.94388.axf

JavaScript Object Notation format (JSON) in row-major order
http://www.bom.gov.au/fwo/IDQ60701/IDQ60701.94388.json

Data quality

Most of these data are generated automatically and are frequently updated. Quality checks on data are not normally performed. It is possible for incorrect values to appear. Refer to information at About Latest Weather Observations and please check the disclaimer before using these data.